sensor_id;sensor_type;location;lat;lon;timestamp;temperature;humidity
6114;DHT22;3087;48.392;10.836;2022-09-16T00:01:17;15.80;99.90
6114;DHT22;3087;48.392;10.836;2022-09-16T00:06:21;15.80;99.90
6114;DHT22;3087;48.392;10.836;2022-09-16T00:08:48;15.90;99.90
6114;DHT22;3087;48.392;10.836;2022-09-16T00:11:14;15.80;99.90
6114;DHT22;3087;48.392;10.836;2022-09-16T00:13:39;15.80;99.90
6114;DHT22;3087;48.392;10.836;2022-09-16T00:16:10;15.90;99.90
6114;DHT22;3087;48.392;10.836;2022-09-16T00:18:36;15.90;99.90
6114;DHT22;3087;48.392;10.836;2022-09-16T00:21:06;15.90;99.90
6114;DHT22;3087;48.392;10.836;2022-09-16T00:23:32;15.90;99.90
6114;DHT22;3087;48.392;10.836;2022-09-16T00:30:50;15.90;99.90
6114;DHT22;3087;48.392;10.836;2022-09-16T00:33:17;16.00;99.90
6114;DHT22;3087;48.392;10.836;2022-09-16T00:38:08;15.90;99.90
6114;DHT22;3087;48.392;10.836;2022-09-16T00:43:00;16.00;99.90
6114;DHT22;3087;48.392;10.836;2022-09-16T00:45:27;16.00;99.90
6114;DHT22;3087;48.392;10.836;2022-09-16T00:48:02;16.00;99.90
6114;DHT22;3087;48.392;10.836;2022-09-16T00:50:53;16.00;99.90
6114;DHT22;3087;48.392;10.836;2022-09-16T00:53:33;16.00;99.90
6114;DHT22;3087;48.392;10.836;2022-09-16T00:56:02;16.00;99.90
6114;DHT22;3087;48.392;10.836;2022-09-16T00:58:36;16.00;99.90
6114;DHT22;3087;48.392;10.836;2022-09-16T01:01:04;16.00;99.90
6114;DHT22;3087;48.392;10.836;2022-09-16T01:03:33;16.00;99.90
6114;DHT22;3087;48.392;10.836;2022-09-16T01:05:59;16.00;99.90
6114;DHT22;3087;48.392;10.836;2022-09-16T01:10:52;16.00;99.90
6114;DHT22;3087;48.392;10.836;2022-09-16T01:13:18;16.00;99.90
6114;DHT22;3087;48.392;10.836;2022-09-16T01:16:10;16.00;99.90
6114;DHT22;3087;48.392;10.836;2022-09-16T01:21:25;16.10;99.90
6114;DHT22;3087;48.392;10.836;2022-09-16T01:32:15;16.00;99.90
6114;DHT22;3087;48.392;10.836;2022-09-16T01:44:15;16.00;99.90
6114;DHT22;3087;48.392;10.836;2022-09-16T01:46:40;16.00;99.90
6114;DHT22;3087;48.392;10.836;2022-09-16T01:52:30;16.00;99.90
6114;DHT22;3087;48.392;10.836;2022-09-16T01:55:04;16.10;99.90
6114;DHT22;3087;48.392;10.836;2022-09-16T01:57:39;16.00;99.90
6114;DHT22;3087;48.392;10.836;2022-09-16T02:00:11;16.00;99.90
6114;DHT22;3087;48.392;10.836;2022-09-16T02:05:43;16.10;99.90
6114;DHT22;3087;48.392;10.836;2022-09-16T02:08:16;16.00;99.90
6114;DHT22;3087;48.392;10.836;2022-09-16T02:10:48;16.00;99.90
6114;DHT22;3087;48.392;10.836;2022-09-16T02:13:39;16.00;99.90
6114;DHT22;3087;48.392;10.836;2022-09-16T02:16:27;15.90;99.90
6114;DHT22;3087;48.392;10.836;2022-09-16T02:18:58;16.00;99.90
6114;DHT22;3087;48.392;10.836;2022-09-16T02:21:28;15.90;99.90
6114;DHT22;3087;48.392;10.836;2022-09-16T02:23:59;15.90;99.90
6114;DHT22;3087;48.392;10.836;2022-09-16T02:26:34;15.90;99.90
6114;DHT22;3087;48.392;10.836;2022-09-16T02:29:04;15.90;99.90
6114;DHT22;3087;48.392;10.836;2022-09-16T02:31:35;15.90;99.90
6114;DHT22;3087;48.392;10.836;2022-09-16T02:34:04;15.80;99.90
6114;DHT22;3087;48.392;10.836;2022-09-16T02:36:33;16.00;99.90
6114;DHT22;3087;48.392;10.836;2022-09-16T02:39:04;15.80;99.90
6114;DHT22;3087;48.392;10.836;2022-09-16T02:41:33;15.70;99.90
6114;DHT22;3087;48.392;10.836;2022-09-16T02:43:59;15.60;99.90
6114;DHT22;3087;48.392;10.836;2022-09-16T02:49:04;15.60;99.90
6114;DHT22;3087;48.392;10.836;2022-09-16T02:54:28;15.50;99.90
6114;DHT22;3087;48.392;10.836;2022-09-16T02:56:58;15.40;99.90
6114;DHT22;3087;48.392;10.836;2022-09-16T02:59:24;15.40;99.90
6114;DHT22;3087;48.392;10.836;2022-09-16T03:01:50;15.40;99.90
6114;DHT22;3087;48.392;10.836;2022-09-16T03:04:18;15.40;99.90
6114;DHT22;3087;48.392;10.836;2022-09-16T03:06:45;15.40;99.90
6114;DHT22;3087;48.392;10.836;2022-09-16T03:09:12;15.40;99.90
6114;DHT22;3087;48.392;10.836;2022-09-16T03:19:38;15.30;99.90
6114;DHT22;3087;48.392;10.836;2022-09-16T03:27:50;15.40;99.90
6114;DHT22;3087;48.392;10.836;2022-09-16T03:30:17;15.50;99.90
6114;DHT22;3087;48.392;10.836;2022-09-16T03:32:55;15.50;99.90
6114;DHT22;3087;48.392;10.836;2022-09-16T03:35:38;15.60;99.90
6114;DHT22;3087;48.392;10.836;2022-09-16T03:38:07;15.60;99.90
6114;DHT22;3087;48.392;10.836;2022-09-16T03:40:35;15.60;99.90
6114;DHT22;3087;48.392;10.836;2022-09-16T03:43:12;15.70;99.90
6114;DHT22;3087;48.392;10.836;2022-09-16T03:45:41;15.70;99.90
6114;DHT22;3087;48.392;10.836;2022-09-16T03:48:08;15.70;99.90
6114;DHT22;3087;48.392;10.836;2022-09-16T03:50:34;15.70;99.90
6114;DHT22;3087;48.392;10.836;2022-09-16T03:55:26;15.70;99.90
6114;DHT22;3087;48.392;10.836;2022-09-16T03:57:52;15.70;99.90
6114;DHT22;3087;48.392;10.836;2022-09-16T04:05:10;15.80;99.90
6114;DHT22;3087;48.392;10.836;2022-09-16T04:07:36;15.80;99.90
6114;DHT22;3087;48.392;10.836;2022-09-16T04:10:03;15.80;99.90
6114;DHT22;3087;48.392;10.836;2022-09-16T04:14:55;15.80;99.90
6114;DHT22;3087;48.392;10.836;2022-09-16T04:17:21;15.70;99.90
6114;DHT22;3087;48.392;10.836;2022-09-16T04:34:23;15.40;99.90
6114;DHT22;3087;48.392;10.836;2022-09-16T04:36:49;15.30;99.90
6114;DHT22;3087;48.392;10.836;2022-09-16T04:39:14;15.20;99.90
6114;DHT22;3087;48.392;10.836;2022-09-16T04:41:40;15.20;99.90
6114;DHT22;3087;48.392;10.836;2022-09-16T04:46:33;15.20;99.90
6114;DHT22;3087;48.392;10.836;2022-09-16T04:48:59;15.20;99.90
6114;DHT22;3087;48.392;10.836;2022-09-16T04:51:26;15.30;99.90
6114;DHT22;3087;48.392;10.836;2022-09-16T04:53:54;15.30;99.90
6114;DHT22;3087;48.392;10.836;2022-09-16T04:56:22;15.30;99.90
6114;DHT22;3087;48.392;10.836;2022-09-16T04:58:50;15.40;99.90
6114;DHT22;3087;48.392;10.836;2022-09-16T05:01:25;15.50;99.90
6114;DHT22;3087;48.392;10.836;2022-09-16T05:03:53;15.60;99.90
6114;DHT22;3087;48.392;10.836;2022-09-16T05:06:24;15.60;99.90
6114;DHT22;3087;48.392;10.836;2022-09-16T05:08:51;15.70;99.90
6114;DHT22;3087;48.392;10.836;2022-09-16T05:11:23;15.70;99.90
6114;DHT22;3087;48.392;10.836;2022-09-16T05:13:48;15.70;99.90
6114;DHT22;3087;48.392;10.836;2022-09-16T05:16:17;15.70;99.90
6114;DHT22;3087;48.392;10.836;2022-09-16T05:18:45;15.70;99.90
6114;DHT22;3087;48.392;10.836;2022-09-16T05:21:16;15.80;99.90
6114;DHT22;3087;48.392;10.836;2022-09-16T05:23:42;15.80;99.90
6114;DHT22;3087;48.392;10.836;2022-09-16T05:26:19;15.80;99.90
6114;DHT22;3087;48.392;10.836;2022-09-16T05:31:12;15.70;99.90
6114;DHT22;3087;48.392;10.836;2022-09-16T05:33:39;15.80;99.90
6114;DHT22;3087;48.392;10.836;2022-09-16T05:36:16;15.80;99.90
6114;DHT22;3087;48.392;10.836;2022-09-16T05:38:43;15.80;99.90
6114;DHT22;3087;48.392;10.836;2022-09-16T05:41:09;15.80;99.90
6114;DHT22;3087;48.392;10.836;2022-09-16T05:43:36;15.90;99.90
6114;DHT22;3087;48.392;10.836;2022-09-16T05:46:03;15.80;99.90
6114;DHT22;3087;48.392;10.836;2022-09-16T05:51:01;15.90;99.90
6114;DHT22;3087;48.392;10.836;2022-09-16T05:53:28;16.00;99.90
6114;DHT22;3087;48.392;10.836;2022-09-16T05:56:02;16.00;99.90
6114;DHT22;3087;48.392;10.836;2022-09-16T05:58:29;16.00;99.90
6114;DHT22;3087;48.392;10.836;2022-09-16T06:01:03;16.10;99.90
6114;DHT22;3087;48.392;10.836;2022-09-16T06:03:31;16.10;99.90
6114;DHT22;3087;48.392;10.836;2022-09-16T06:08:36;16.10;99.90
6114;DHT22;3087;48.392;10.836;2022-09-16T06:11:07;16.10;99.90
6114;DHT22;3087;48.392;10.836;2022-09-16T06:13:33;16.20;99.90
6114;DHT22;3087;48.392;10.836;2022-09-16T06:16:00;16.20;99.90
6114;DHT22;3087;48.392;10.836;2022-09-16T06:18:28;16.30;99.90
6114;DHT22;3087;48.392;10.836;2022-09-16T06:20:55;16.30;99.90
6114;DHT22;3087;48.392;10.836;2022-09-16T06:23:21;16.30;99.90
6114;DHT22;3087;48.392;10.836;2022-09-16T06:25:47;16.30;99.90
6114;DHT22;3087;48.392;10.836;2022-09-16T06:28:14;16.30;99.90
6114;DHT22;3087;48.392;10.836;2022-09-16T06:30:40;16.30;99.90
6114;DHT22;3087;48.392;10.836;2022-09-16T06:33:06;16.30;99.90
6114;DHT22;3087;48.392;10.836;2022-09-16T06:35:33;16.40;99.90
6114;DHT22;3087;48.392;10.836;2022-09-16T06:38:00;16.40;99.90
6114;DHT22;3087;48.392;10.836;2022-09-16T06:42:52;16.40;99.90
6114;DHT22;3087;48.392;10.836;2022-09-16T06:45:19;16.50;99.90
6114;DHT22;3087;48.392;10.836;2022-09-16T06:50:11;16.40;99.90
6114;DHT22;3087;48.392;10.836;2022-09-16T06:52:36;16.50;99.90
6114;DHT22;3087;48.392;10.836;2022-09-16T06:55:02;16.50;99.90
6114;DHT22;3087;48.392;10.836;2022-09-16T06:57:29;16.50;99.90
6114;DHT22;3087;48.392;10.836;2022-09-16T06:59:55;16.50;99.90
6114;DHT22;3087;48.392;10.836;2022-09-16T07:02:20;16.50;99.90
6114;DHT22;3087;48.392;10.836;2022-09-16T07:04:46;16.50;99.90
6114;DHT22;3087;48.392;10.836;2022-09-16T07:07:12;16.50;99.90
6114;DHT22;3087;48.392;10.836;2022-09-16T07:09:38;16.60;99.90
6114;DHT22;3087;48.392;10.836;2022-09-16T07:12:04;16.50;99.90
6114;DHT22;3087;48.392;10.836;2022-09-16T07:14:30;16.50;99.90
6114;DHT22;3087;48.392;10.836;2022-09-16T07:17:00;16.50;99.90
6114;DHT22;3087;48.392;10.836;2022-09-16T07:19:26;16.50;99.90
6114;DHT22;3087;48.392;10.836;2022-09-16T07:21:52;16.50;99.90
6114;DHT22;3087;48.392;10.836;2022-09-16T07:24:18;16.90;99.90
6114;DHT22;3087;48.392;10.836;2022-09-16T07:26:44;16.60;99.90
6114;DHT22;3087;48.392;10.836;2022-09-16T07:29:12;16.70;99.90
6114;DHT22;3087;48.392;10.836;2022-09-16T07:31:38;16.70;99.90
6114;DHT22;3087;48.392;10.836;2022-09-16T07:34:05;16.80;99.90
6114;DHT22;3087;48.392;10.836;2022-09-16T07:36:37;16.80;99.90
6114;DHT22;3087;48.392;10.836;2022-09-16T07:39:04;16.80;99.90
6114;DHT22;3087;48.392;10.836;2022-09-16T07:41:35;16.80;99.90
6114;DHT22;3087;48.392;10.836;2022-09-16T07:44:03;16.90;99.90
6114;DHT22;3087;48.392;10.836;2022-09-16T07:46:31;16.90;99.90
6114;DHT22;3087;48.392;10.836;2022-09-16T07:48:58;16.90;99.90
6114;DHT22;3087;48.392;10.836;2022-09-16T07:51:25;16.90;99.90
6114;DHT22;3087;48.392;10.836;2022-09-16T07:53:58;16.90;99.90
6114;DHT22;3087;48.392;10.836;2022-09-16T07:56:26;16.90;99.90
6114;DHT22;3087;48.392;10.836;2022-09-16T07:58:53;16.90;99.90
6114;DHT22;3087;48.392;10.836;2022-09-16T08:01:20;17.00;99.90
6114;DHT22;3087;48.392;10.836;2022-09-16T08:03:46;17.00;99.90
6114;DHT22;3087;48.392;10.836;2022-09-16T08:06:16;17.00;99.90
6114;DHT22;3087;48.392;10.836;2022-09-16T08:08:42;17.00;99.90
6114;DHT22;3087;48.392;10.836;2022-09-16T08:13:35;17.00;99.90
6114;DHT22;3087;48.392;10.836;2022-09-16T08:16:16;17.00;99.90
6114;DHT22;3087;48.392;10.836;2022-09-16T08:18:43;17.00;99.90
6114;DHT22;3087;48.392;10.836;2022-09-16T08:21:36;17.00;99.90
6114;DHT22;3087;48.392;10.836;2022-09-16T08:24:01;16.90;99.90
6114;DHT22;3087;48.392;10.836;2022-09-16T08:26:27;16.90;99.90
6114;DHT22;3087;48.392;10.836;2022-09-16T08:31:19;16.70;99.90
6114;DHT22;3087;48.392;10.836;2022-09-16T08:33:45;16.70;99.90
6114;DHT22;3087;48.392;10.836;2022-09-16T08:36:14;16.60;99.90
6114;DHT22;3087;48.392;10.836;2022-09-16T08:38:42;16.60;99.90
6114;DHT22;3087;48.392;10.836;2022-09-16T08:41:25;16.70;99.90
6114;DHT22;3087;48.392;10.836;2022-09-16T08:49:41;16.30;99.90
6114;DHT22;3087;48.392;10.836;2022-09-16T08:52:17;16.10;99.90
6114;DHT22;3087;48.392;10.836;2022-09-16T08:54:50;15.80;99.90
6114;DHT22;3087;48.392;10.836;2022-09-16T08:57:20;15.70;99.90
6114;DHT22;3087;48.392;10.836;2022-09-16T08:59:56;15.60;99.90
6114;DHT22;3087;48.392;10.836;2022-09-16T09:04:52;15.60;99.90
6114;DHT22;3087;48.392;10.836;2022-09-16T09:12:35;15.60;99.90
6114;DHT22;3087;48.392;10.836;2022-09-16T09:15:42;15.60;99.90
6114;DHT22;3087;48.392;10.836;2022-09-16T09:26:50;15.30;99.90
6114;DHT22;3087;48.392;10.836;2022-09-16T09:43:11;15.40;99.90
6114;DHT22;3087;48.392;10.836;2022-09-16T09:45:59;15.30;99.90
6114;DHT22;3087;48.392;10.836;2022-09-16T09:48:39;15.30;99.90
6114;DHT22;3087;48.392;10.836;2022-09-16T09:53:49;15.20;99.90
6114;DHT22;3087;48.392;10.836;2022-09-16T09:56:19;15.20;99.90
6114;DHT22;3087;48.392;10.836;2022-09-16T09:58:56;15.30;99.90
6114;DHT22;3087;48.392;10.836;2022-09-16T10:03:51;15.10;99.90
6114;DHT22;3087;48.392;10.836;2022-09-16T10:06:24;15.20;99.90
6114;DHT22;3087;48.392;10.836;2022-09-16T10:08:51;15.40;99.90
6114;DHT22;3087;48.392;10.836;2022-09-16T10:11:22;15.60;99.90
6114;DHT22;3087;48.392;10.836;2022-09-16T10:13:59;15.90;99.90
6114;DHT22;3087;48.392;10.836;2022-09-16T10:16:34;16.20;99.90
6114;DHT22;3087;48.392;10.836;2022-09-16T10:19:15;16.30;99.90
6114;DHT22;3087;48.392;10.836;2022-09-16T10:21:45;15.90;99.90
6114;DHT22;3087;48.392;10.836;2022-09-16T10:24:37;16.10;99.90
6114;DHT22;3087;48.392;10.836;2022-09-16T10:27:23;16.00;99.90
6114;DHT22;3087;48.392;10.836;2022-09-16T10:33:06;15.80;99.90
6114;DHT22;3087;48.392;10.836;2022-09-16T10:35:37;15.80;99.90
6114;DHT22;3087;48.392;10.836;2022-09-16T10:38:17;15.80;99.90
6114;DHT22;3087;48.392;10.836;2022-09-16T10:41:12;15.80;99.90
6114;DHT22;3087;48.392;10.836;2022-09-16T10:43:50;15.90;99.90
6114;DHT22;3087;48.392;10.836;2022-09-16T10:46:16;15.80;99.90
6114;DHT22;3087;48.392;10.836;2022-09-16T10:48:44;15.80;99.90
6114;DHT22;3087;48.392;10.836;2022-09-16T10:51:27;15.90;99.90
6114;DHT22;3087;48.392;10.836;2022-09-16T10:53:56;15.90;99.90
6114;DHT22;3087;48.392;10.836;2022-09-16T10:56:25;15.90;99.90
6114;DHT22;3087;48.392;10.836;2022-09-16T10:59:10;15.90;99.90
6114;DHT22;3087;48.392;10.836;2022-09-16T11:13:07;15.70;99.90
6114;DHT22;3087;48.392;10.836;2022-09-16T11:18:45;15.70;99.90
6114;DHT22;3087;48.392;10.836;2022-09-16T11:21:51;15.60;99.90
6114;DHT22;3087;48.392;10.836;2022-09-16T11:27:42;15.70;99.90
6114;DHT22;3087;48.392;10.836;2022-09-16T11:30:13;15.80;99.90
6114;DHT22;3087;48.392;10.836;2022-09-16T11:44:09;15.70;99.90
6114;DHT22;3087;48.392;10.836;2022-09-16T11:49:58;15.60;99.90
6114;DHT22;3087;48.392;10.836;2022-09-16T11:55:30;15.50;99.90
6114;DHT22;3087;48.392;10.836;2022-09-16T11:58:02;15.50;99.90
6114;DHT22;3087;48.392;10.836;2022-09-16T12:00:30;15.60;99.90
6114;DHT22;3087;48.392;10.836;2022-09-16T12:05:53;15.60;99.90
6114;DHT22;3087;48.392;10.836;2022-09-16T12:13:54;15.90;99.90
6114;DHT22;3087;48.392;10.836;2022-09-16T12:16:41;15.90;99.90
6114;DHT22;3087;48.392;10.836;2022-09-16T12:19:22;15.90;99.90
6114;DHT22;3087;48.392;10.836;2022-09-16T12:21:53;16.00;99.90
6114;DHT22;3087;48.392;10.836;2022-09-16T12:24:30;16.10;99.90
6114;DHT22;3087;48.392;10.836;2022-09-16T12:27:27;16.10;99.90
6114;DHT22;3087;48.392;10.836;2022-09-16T12:30:04;16.20;99.90
6114;DHT22;3087;48.392;10.836;2022-09-16T12:37:54;16.10;99.90
6114;DHT22;3087;48.392;10.836;2022-09-16T12:40:23;16.10;99.90
6114;DHT22;3087;48.392;10.836;2022-09-16T13:02:14;16.30;99.90
6114;DHT22;3087;48.392;10.836;2022-09-16T13:04:44;16.40;99.90
6114;DHT22;3087;48.392;10.836;2022-09-16T13:12:30;16.80;99.90
6114;DHT22;3087;48.392;10.836;2022-09-16T13:15:01;16.80;99.90
6114;DHT22;3087;48.392;10.836;2022-09-16T13:17:34;16.80;99.90
6114;DHT22;3087;48.392;10.836;2022-09-16T13:27:40;16.70;99.90
6114;DHT22;3087;48.392;10.836;2022-09-16T13:37:52;16.50;99.90
6114;DHT22;3087;48.392;10.836;2022-09-16T13:40:25;16.50;99.90
6114;DHT22;3087;48.392;10.836;2022-09-16T13:43:03;16.60;99.90
6114;DHT22;3087;48.392;10.836;2022-09-16T13:48:04;16.50;99.90
6114;DHT22;3087;48.392;10.836;2022-09-16T13:53:08;16.50;99.90
6114;DHT22;3087;48.392;10.836;2022-09-16T13:55:36;16.50;99.90
6114;DHT22;3087;48.392;10.836;2022-09-16T14:00:48;16.40;99.90
6114;DHT22;3087;48.392;10.836;2022-09-16T14:06:19;16.40;99.90
6114;DHT22;3087;48.392;10.836;2022-09-16T14:11:52;16.40;99.90
6114;DHT22;3087;48.392;10.836;2022-09-16T14:14:22;16.40;99.90
6114;DHT22;3087;48.392;10.836;2022-09-16T14:19:31;16.40;99.90
6114;DHT22;3087;48.392;10.836;2022-09-16T14:22:10;16.40;99.90
6114;DHT22;3087;48.392;10.836;2022-09-16T14:24:39;16.40;99.90
6114;DHT22;3087;48.392;10.836;2022-09-16T14:27:18;16.40;99.90
6114;DHT22;3087;48.392;10.836;2022-09-16T14:29:54;16.30;99.90
6114;DHT22;3087;48.392;10.836;2022-09-16T14:32:23;16.30;99.90
6114;DHT22;3087;48.392;10.836;2022-09-16T14:34:50;16.30;99.90
6114;DHT22;3087;48.392;10.836;2022-09-16T14:37:18;16.30;99.90
6114;DHT22;3087;48.392;10.836;2022-09-16T14:39:45;16.30;99.90
6114;DHT22;3087;48.392;10.836;2022-09-16T14:42:18;16.40;99.90
6114;DHT22;3087;48.392;10.836;2022-09-16T14:44:54;16.40;99.90
6114;DHT22;3087;48.392;10.836;2022-09-16T14:49:52;16.40;99.90
6114;DHT22;3087;48.392;10.836;2022-09-16T14:52:25;16.30;99.90
6114;DHT22;3087;48.392;10.836;2022-09-16T14:54:51;16.30;99.90
6114;DHT22;3087;48.392;10.836;2022-09-16T14:57:25;16.10;99.90
6114;DHT22;3087;48.392;10.836;2022-09-16T15:00:02;14.70;99.90
6114;DHT22;3087;48.392;10.836;2022-09-16T15:02:50;16.10;99.90
6114;DHT22;3087;48.392;10.836;2022-09-16T15:07:47;16.10;99.90
6114;DHT22;3087;48.392;10.836;2022-09-16T15:10:24;16.10;99.90
6114;DHT22;3087;48.392;10.836;2022-09-16T15:12:54;16.20;99.90
6114;DHT22;3087;48.392;10.836;2022-09-16T15:15:26;16.10;99.90
6114;DHT22;3087;48.392;10.836;2022-09-16T15:20:31;16.00;99.90
6114;DHT22;3087;48.392;10.836;2022-09-16T15:22:58;16.10;99.90
6114;DHT22;3087;48.392;10.836;2022-09-16T15:25:35;16.00;99.90
6114;DHT22;3087;48.392;10.836;2022-09-16T15:28:21;16.10;99.90
6114;DHT22;3087;48.392;10.836;2022-09-16T15:30:51;16.00;99.90
6114;DHT22;3087;48.392;10.836;2022-09-16T15:33:36;16.00;99.90
6114;DHT22;3087;48.392;10.836;2022-09-16T15:36:05;15.90;99.90
6114;DHT22;3087;48.392;10.836;2022-09-16T15:38:32;15.90;99.90
6114;DHT22;3087;48.392;10.836;2022-09-16T15:41:10;15.90;99.90
6114;DHT22;3087;48.392;10.836;2022-09-16T15:43:39;16.00;99.90
6114;DHT22;3087;48.392;10.836;2022-09-16T15:46:23;15.90;99.90
6114;DHT22;3087;48.392;10.836;2022-09-16T15:48:59;16.00;99.90
6114;DHT22;3087;48.392;10.836;2022-09-16T15:51:38;16.00;99.90
6114;DHT22;3087;48.392;10.836;2022-09-16T15:54:28;16.00;99.90
6114;DHT22;3087;48.392;10.836;2022-09-16T15:59:34;15.90;99.90
6114;DHT22;3087;48.392;10.836;2022-09-16T16:02:04;15.80;99.90
6114;DHT22;3087;48.392;10.836;2022-09-16T16:04:33;15.70;99.90
6114;DHT22;3087;48.392;10.836;2022-09-16T16:07:04;15.60;99.90
6114;DHT22;3087;48.392;10.836;2022-09-16T16:12:01;15.60;99.90
6114;DHT22;3087;48.392;10.836;2022-09-16T16:14:30;15.20;99.90
6114;DHT22;3087;48.392;10.836;2022-09-16T16:17:18;15.50;99.90
6114;DHT22;3087;48.392;10.836;2022-09-16T16:19:45;15.40;99.90
6114;DHT22;3087;48.392;10.836;2022-09-16T16:22:11;15.30;99.90
6114;DHT22;3087;48.392;10.836;2022-09-16T16:27:04;15.30;99.90
6114;DHT22;3087;48.392;10.836;2022-09-16T16:32:10;15.40;99.90
6114;DHT22;3087;48.392;10.836;2022-09-16T16:34:40;15.50;99.90
6114;DHT22;3087;48.392;10.836;2022-09-16T16:37:07;15.50;99.90
6114;DHT22;3087;48.392;10.836;2022-09-16T16:39:34;15.50;99.90
6114;DHT22;3087;48.392;10.836;2022-09-16T16:42:00;15.50;99.90
6114;DHT22;3087;48.392;10.836;2022-09-16T16:44:26;15.90;99.90
6114;DHT22;3087;48.392;10.836;2022-09-16T16:46:53;15.50;99.90
6114;DHT22;3087;48.392;10.836;2022-09-16T16:49:20;15.40;99.90
6114;DHT22;3087;48.392;10.836;2022-09-16T16:51:52;15.40;99.90
6114;DHT22;3087;48.392;10.836;2022-09-16T16:54:20;15.30;99.90
6114;DHT22;3087;48.392;10.836;2022-09-16T16:56:47;15.30;99.90
6114;DHT22;3087;48.392;10.836;2022-09-16T16:59:13;15.30;99.90
6114;DHT22;3087;48.392;10.836;2022-09-16T17:01:40;15.20;99.90
6114;DHT22;3087;48.392;10.836;2022-09-16T17:04:06;15.20;99.90
6114;DHT22;3087;48.392;10.836;2022-09-16T17:06:32;15.20;99.90
6114;DHT22;3087;48.392;10.836;2022-09-16T17:11:25;15.20;99.90
6114;DHT22;3087;48.392;10.836;2022-09-16T17:13:55;15.10;99.90
6114;DHT22;3087;48.392;10.836;2022-09-16T17:16:23;18.10;99.90
6114;DHT22;3087;48.392;10.836;2022-09-16T17:18:50;15.10;99.90
6114;DHT22;3087;48.392;10.836;2022-09-16T17:21:18;15.00;99.90
6114;DHT22;3087;48.392;10.836;2022-09-16T17:26:11;15.00;99.90
6114;DHT22;3087;48.392;10.836;2022-09-16T17:28:38;15.00;99.90
6114;DHT22;3087;48.392;10.836;2022-09-16T17:33:38;15.00;99.90
6114;DHT22;3087;48.392;10.836;2022-09-16T17:36:06;14.90;99.90
6114;DHT22;3087;48.392;10.836;2022-09-16T17:38:32;15.00;99.90
6114;DHT22;3087;48.392;10.836;2022-09-16T17:43:31;15.00;99.90
6114;DHT22;3087;48.392;10.836;2022-09-16T17:45:58;15.10;99.90
6114;DHT22;3087;48.392;10.836;2022-09-16T17:50:51;15.10;99.90
6114;DHT22;3087;48.392;10.836;2022-09-16T17:53:17;15.10;99.90
6114;DHT22;3087;48.392;10.836;2022-09-16T18:00:38;15.10;99.90
6114;DHT22;3087;48.392;10.836;2022-09-16T18:03:04;15.20;99.90
6114;DHT22;3087;48.392;10.836;2022-09-16T18:05:34;15.20;99.90
6114;DHT22;3087;48.392;10.836;2022-09-16T18:12:54;15.00;99.90
6114;DHT22;3087;48.392;10.836;2022-09-16T18:15:20;15.00;99.90
6114;DHT22;3087;48.392;10.836;2022-09-16T18:17:45;14.90;99.90
6114;DHT22;3087;48.392;10.836;2022-09-16T18:22:37;14.90;99.90
6114;DHT22;3087;48.392;10.836;2022-09-16T18:25:04;14.90;99.90
6114;DHT22;3087;48.392;10.836;2022-09-16T18:27:30;14.90;99.90
6114;DHT22;3087;48.392;10.836;2022-09-16T18:32:22;14.70;99.90
6114;DHT22;3087;48.392;10.836;2022-09-16T18:37:14;14.70;99.90
6114;DHT22;3087;48.392;10.836;2022-09-16T18:54:23;14.70;99.90
6114;DHT22;3087;48.392;10.836;2022-09-16T18:56:50;14.80;99.90
6114;DHT22;3087;48.392;10.836;2022-09-16T18:59:18;14.80;99.90
6114;DHT22;3087;48.392;10.836;2022-09-16T19:04:15;14.70;99.90
6114;DHT22;3087;48.392;10.836;2022-09-16T19:06:43;14.70;99.90
6114;DHT22;3087;48.392;10.836;2022-09-16T19:09:11;14.70;99.90
6114;DHT22;3087;48.392;10.836;2022-09-16T19:11:37;14.70;99.90
6114;DHT22;3087;48.392;10.836;2022-09-16T19:14:05;14.70;99.90
6114;DHT22;3087;48.392;10.836;2022-09-16T19:16:37;14.70;99.90
6114;DHT22;3087;48.392;10.836;2022-09-16T19:19:07;14.80;99.90
6114;DHT22;3087;48.392;10.836;2022-09-16T19:21:34;14.70;99.90
6114;DHT22;3087;48.392;10.836;2022-09-16T19:24:03;14.70;99.90
6114;DHT22;3087;48.392;10.836;2022-09-16T19:26:32;14.80;99.90
6114;DHT22;3087;48.392;10.836;2022-09-16T19:31:26;14.70;99.90
6114;DHT22;3087;48.392;10.836;2022-09-16T19:33:54;14.70;99.90
6114;DHT22;3087;48.392;10.836;2022-09-16T19:36:21;14.70;99.90
6114;DHT22;3087;48.392;10.836;2022-09-16T19:38:48;14.70;99.90
6114;DHT22;3087;48.392;10.836;2022-09-16T19:41:15;14.70;99.90
6114;DHT22;3087;48.392;10.836;2022-09-16T19:43:41;14.80;99.90
6114;DHT22;3087;48.392;10.836;2022-09-16T19:46:11;14.70;99.90
6114;DHT22;3087;48.392;10.836;2022-09-16T19:48:39;14.70;99.90
6114;DHT22;3087;48.392;10.836;2022-09-16T19:51:07;14.70;99.90
6114;DHT22;3087;48.392;10.836;2022-09-16T19:53:34;14.60;99.90
6114;DHT22;3087;48.392;10.836;2022-09-16T19:56:07;14.60;99.90
6114;DHT22;3087;48.392;10.836;2022-09-16T19:58:34;14.50;99.90
6114;DHT22;3087;48.392;10.836;2022-09-16T20:01:06;14.50;99.90
6114;DHT22;3087;48.392;10.836;2022-09-16T20:03:33;14.60;99.90
6114;DHT22;3087;48.392;10.836;2022-09-16T20:10:53;14.70;99.90
6114;DHT22;3087;48.392;10.836;2022-09-16T20:13:18;14.80;99.90
6114;DHT22;3087;48.392;10.836;2022-09-16T20:15:44;14.70;99.90
6114;DHT22;3087;48.392;10.836;2022-09-16T20:27:54;14.60;99.90
6114;DHT22;3087;48.392;10.836;2022-09-16T20:32:45;14.60;99.90
6114;DHT22;3087;48.392;10.836;2022-09-16T20:35:11;14.60;99.90
6114;DHT22;3087;48.392;10.836;2022-09-16T20:40:03;14.70;99.90
6114;DHT22;3087;48.392;10.836;2022-09-16T20:44:55;14.70;99.90
6114;DHT22;3087;48.392;10.836;2022-09-16T20:47:21;14.70;99.90
6114;DHT22;3087;48.392;10.836;2022-09-16T20:49:46;14.70;99.90
6114;DHT22;3087;48.392;10.836;2022-09-16T20:54:57;14.60;99.90
6114;DHT22;3087;48.392;10.836;2022-09-16T20:57:23;14.40;99.90
6114;DHT22;3087;48.392;10.836;2022-09-16T20:59:49;14.40;99.90
6114;DHT22;3087;48.392;10.836;2022-09-16T21:04:50;14.20;99.90
6114;DHT22;3087;48.392;10.836;2022-09-16T21:07:17;14.10;99.90
6114;DHT22;3087;48.392;10.836;2022-09-16T21:17:01;14.00;99.90
6114;DHT22;3087;48.392;10.836;2022-09-16T21:19:27;14.00;99.90
6114;DHT22;3087;48.392;10.836;2022-09-16T21:29:14;14.20;99.90
6114;DHT22;3087;48.392;10.836;2022-09-16T21:31:41;14.20;99.90
6114;DHT22;3087;48.392;10.836;2022-09-16T21:34:12;14.20;99.90
6114;DHT22;3087;48.392;10.836;2022-09-16T21:36:38;14.20;99.90
6114;DHT22;3087;48.392;10.836;2022-09-16T21:41:31;14.20;99.90
6114;DHT22;3087;48.392;10.836;2022-09-16T21:43:57;14.10;99.90
6114;DHT22;3087;48.392;10.836;2022-09-16T21:46:28;14.10;99.90
6114;DHT22;3087;48.392;10.836;2022-09-16T21:48:56;14.10;99.90
6114;DHT22;3087;48.392;10.836;2022-09-16T21:53:51;14.20;99.90
6114;DHT22;3087;48.392;10.836;2022-09-16T21:56:21;14.30;99.90
6114;DHT22;3087;48.392;10.836;2022-09-16T21:58:51;14.30;99.90
6114;DHT22;3087;48.392;10.836;2022-09-16T22:01:22;14.30;99.90
6114;DHT22;3087;48.392;10.836;2022-09-16T22:03:54;14.40;99.90
6114;DHT22;3087;48.392;10.836;2022-09-16T22:06:20;14.40;99.90
6114;DHT22;3087;48.392;10.836;2022-09-16T22:08:50;14.30;99.90
6114;DHT22;3087;48.392;10.836;2022-09-16T22:11:18;14.30;99.90